sensor_id;sensor_type;location;lat;lon;timestamp;temperature;humidity
16635;DHT22;8431;52.458;9.998;2022-08-01T00:02:22;18.50;99.90
16635;DHT22;8431;52.458;9.998;2022-08-01T00:04:57;18.50;99.90
16635;DHT22;8431;52.458;9.998;2022-08-01T00:07:26;18.50;99.90
16635;DHT22;8431;52.458;9.998;2022-08-01T00:09:55;18.60;99.90
16635;DHT22;8431;52.458;9.998;2022-08-01T00:12:30;18.50;99.90
16635;DHT22;8431;52.458;9.998;2022-08-01T00:15:06;18.50;99.90
16635;DHT22;8431;52.458;9.998;2022-08-01T00:17:58;18.50;99.90
16635;DHT22;8431;52.458;9.998;2022-08-01T00:20:37;18.50;99.90
16635;DHT22;8431;52.458;9.998;2022-08-01T00:23:13;18.50;99.90
16635;DHT22;8431;52.458;9.998;2022-08-01T00:25:55;18.50;99.90
16635;DHT22;8431;52.458;9.998;2022-08-01T00:28:31;18.50;99.90
16635;DHT22;8431;52.458;9.998;2022-08-01T00:31:02;18.50;99.90
16635;DHT22;8431;52.458;9.998;2022-08-01T00:33:41;18.50;99.90
16635;DHT22;8431;52.458;9.998;2022-08-01T00:36:22;18.50;99.90
16635;DHT22;8431;52.458;9.998;2022-08-01T00:38:54;18.40;99.90
16635;DHT22;8431;52.458;9.998;2022-08-01T00:41:34;18.40;99.90
16635;DHT22;8431;52.458;9.998;2022-08-01T00:44:09;18.40;99.90
16635;DHT22;8431;52.458;9.998;2022-08-01T00:46:37;18.40;99.90
16635;DHT22;8431;52.458;9.998;2022-08-01T00:49:14;18.40;99.90
16635;DHT22;8431;52.458;9.998;2022-08-01T00:51:42;18.40;99.90
16635;DHT22;8431;52.458;9.998;2022-08-01T00:54:21;18.40;99.90
16635;DHT22;8431;52.458;9.998;2022-08-01T00:56:56;18.40;99.90
16635;DHT22;8431;52.458;9.998;2022-08-01T00:59:27;18.40;99.90
16635;DHT22;8431;52.458;9.998;2022-08-01T01:01:54;18.40;99.90
16635;DHT22;8431;52.458;9.998;2022-08-01T01:04:26;18.40;99.90
16635;DHT22;8431;52.458;9.998;2022-08-01T01:07:08;18.40;99.90
16635;DHT22;8431;52.458;9.998;2022-08-01T01:10:00;18.40;99.90
16635;DHT22;8431;52.458;9.998;2022-08-01T01:12:38;18.40;99.90
16635;DHT22;8431;52.458;9.998;2022-08-01T01:15:14;18.40;99.90
16635;DHT22;8431;52.458;9.998;2022-08-01T01:17:48;18.40;99.90
16635;DHT22;8431;52.458;9.998;2022-08-01T01:20:18;18.40;99.90
16635;DHT22;8431;52.458;9.998;2022-08-01T01:23:15;18.40;99.90
16635;DHT22;8431;52.458;9.998;2022-08-01T01:26:11;18.50;99.90
16635;DHT22;8431;52.458;9.998;2022-08-01T01:28:55;18.50;99.90
16635;DHT22;8431;52.458;9.998;2022-08-01T01:31:28;18.50;99.90
16635;DHT22;8431;52.458;9.998;2022-08-01T01:34:00;18.50;99.90
16635;DHT22;8431;52.458;9.998;2022-08-01T01:36:39;18.50;99.90
16635;DHT22;8431;52.458;9.998;2022-08-01T01:39:12;18.50;99.90
16635;DHT22;8431;52.458;9.998;2022-08-01T01:41:44;18.50;99.90
16635;DHT22;8431;52.458;9.998;2022-08-01T01:44:17;18.50;99.90
16635;DHT22;8431;52.458;9.998;2022-08-01T01:46:54;18.50;99.90
16635;DHT22;8431;52.458;9.998;2022-08-01T01:49:26;18.50;99.90
16635;DHT22;8431;52.458;9.998;2022-08-01T01:52:00;18.50;99.90
16635;DHT22;8431;52.458;9.998;2022-08-01T01:54:40;18.50;99.90
16635;DHT22;8431;52.458;9.998;2022-08-01T01:57:09;18.50;99.90
16635;DHT22;8431;52.458;9.998;2022-08-01T01:59:42;18.50;99.90
16635;DHT22;8431;52.458;9.998;2022-08-01T02:02:14;18.50;99.90
16635;DHT22;8431;52.458;9.998;2022-08-01T02:04:45;18.50;99.90
16635;DHT22;8431;52.458;9.998;2022-08-01T02:07:19;18.40;99.90
16635;DHT22;8431;52.458;9.998;2022-08-01T02:09:54;18.40;99.90
16635;DHT22;8431;52.458;9.998;2022-08-01T02:12:27;18.40;99.90
16635;DHT22;8431;52.458;9.998;2022-08-01T02:14:57;18.40;99.90
16635;DHT22;8431;52.458;9.998;2022-08-01T02:17:29;18.40;99.90
16635;DHT22;8431;52.458;9.998;2022-08-01T02:19:59;18.40;99.90
16635;DHT22;8431;52.458;9.998;2022-08-01T02:22:42;18.40;99.90
16635;DHT22;8431;52.458;9.998;2022-08-01T02:25:15;18.30;99.90
16635;DHT22;8431;52.458;9.998;2022-08-01T02:27:55;18.30;99.90
16635;DHT22;8431;52.458;9.998;2022-08-01T02:30:25;18.30;99.90
16635;DHT22;8431;52.458;9.998;2022-08-01T02:33:05;18.20;99.90
16635;DHT22;8431;52.458;9.998;2022-08-01T02:35:50;18.20;99.90
16635;DHT22;8431;52.458;9.998;2022-08-01T02:38:22;18.20;99.90
16635;DHT22;8431;52.458;9.998;2022-08-01T02:40:58;18.20;99.90
16635;DHT22;8431;52.458;9.998;2022-08-01T02:43:30;18.20;99.90
16635;DHT22;8431;52.458;9.998;2022-08-01T02:46:03;18.10;99.90
16635;DHT22;8431;52.458;9.998;2022-08-01T02:48:36;18.10;99.90
16635;DHT22;8431;52.458;9.998;2022-08-01T02:51:07;18.00;99.90
16635;DHT22;8431;52.458;9.998;2022-08-01T02:53:38;18.00;99.90
16635;DHT22;8431;52.458;9.998;2022-08-01T02:56:11;18.00;99.90
16635;DHT22;8431;52.458;9.998;2022-08-01T02:58:42;18.00;99.90
16635;DHT22;8431;52.458;9.998;2022-08-01T03:01:17;18.00;99.90
16635;DHT22;8431;52.458;9.998;2022-08-01T03:03:45;18.00;99.90
16635;DHT22;8431;52.458;9.998;2022-08-01T03:06:18;18.00;99.90
16635;DHT22;8431;52.458;9.998;2022-08-01T03:08:50;18.00;99.90
16635;DHT22;8431;52.458;9.998;2022-08-01T03:11:24;18.00;99.90
16635;DHT22;8431;52.458;9.998;2022-08-01T03:13:59;18.00;99.90
16635;DHT22;8431;52.458;9.998;2022-08-01T03:16:28;18.00;99.90
16635;DHT22;8431;52.458;9.998;2022-08-01T03:19:02;18.00;99.90
16635;DHT22;8431;52.458;9.998;2022-08-01T03:21:34;18.10;99.90
16635;DHT22;8431;52.458;9.998;2022-08-01T03:24:08;18.10;99.90
16635;DHT22;8431;52.458;9.998;2022-08-01T03:26:38;18.00;99.90
16635;DHT22;8431;52.458;9.998;2022-08-01T03:29:13;18.00;99.90
16635;DHT22;8431;52.458;9.998;2022-08-01T03:31:46;18.00;99.90
16635;DHT22;8431;52.458;9.998;2022-08-01T03:34:15;18.00;99.90
16635;DHT22;8431;52.458;9.998;2022-08-01T03:36:47;18.00;99.90
16635;DHT22;8431;52.458;9.998;2022-08-01T03:39:16;18.00;99.90
16635;DHT22;8431;52.458;9.998;2022-08-01T03:41:50;18.00;99.90
16635;DHT22;8431;52.458;9.998;2022-08-01T03:44:29;18.00;99.90
16635;DHT22;8431;52.458;9.998;2022-08-01T03:47:10;18.00;99.90
16635;DHT22;8431;52.458;9.998;2022-08-01T03:49:44;17.90;99.90
16635;DHT22;8431;52.458;9.998;2022-08-01T03:52:16;18.00;99.90
16635;DHT22;8431;52.458;9.998;2022-08-01T03:54:50;18.00;99.90
16635;DHT22;8431;52.458;9.998;2022-08-01T03:57:28;18.00;99.90
16635;DHT22;8431;52.458;9.998;2022-08-01T03:59:59;18.00;99.90
16635;DHT22;8431;52.458;9.998;2022-08-01T04:02:28;18.00;99.90
16635;DHT22;8431;52.458;9.998;2022-08-01T04:04:56;18.00;99.90
16635;DHT22;8431;52.458;9.998;2022-08-01T04:07:24;18.00;99.90
16635;DHT22;8431;52.458;9.998;2022-08-01T04:09:51;18.00;99.90
16635;DHT22;8431;52.458;9.998;2022-08-01T04:12:18;18.00;99.90
16635;DHT22;8431;52.458;9.998;2022-08-01T04:14:45;18.00;99.90
16635;DHT22;8431;52.458;9.998;2022-08-01T04:17:12;18.00;99.90
16635;DHT22;8431;52.458;9.998;2022-08-01T04:19:41;18.00;99.90
16635;DHT22;8431;52.458;9.998;2022-08-01T04:22:09;18.00;99.90
16635;DHT22;8431;52.458;9.998;2022-08-01T04:24:36;18.00;99.90
16635;DHT22;8431;52.458;9.998;2022-08-01T04:27:11;18.00;99.90
16635;DHT22;8431;52.458;9.998;2022-08-01T04:29:39;18.00;99.90
16635;DHT22;8431;52.458;9.998;2022-08-01T04:32:10;18.00;99.90
16635;DHT22;8431;52.458;9.998;2022-08-01T04:34:41;18.00;99.90
16635;DHT22;8431;52.458;9.998;2022-08-01T04:37:09;18.00;99.90
16635;DHT22;8431;52.458;9.998;2022-08-01T04:39:37;17.90;99.90
16635;DHT22;8431;52.458;9.998;2022-08-01T04:42:07;18.00;99.90
16635;DHT22;8431;52.458;9.998;2022-08-01T04:44:35;18.00;99.90
16635;DHT22;8431;52.458;9.998;2022-08-01T04:47:03;18.00;99.90
16635;DHT22;8431;52.458;9.998;2022-08-01T04:49:31;18.00;99.90
16635;DHT22;8431;52.458;9.998;2022-08-01T04:51:59;18.10;99.90
16635;DHT22;8431;52.458;9.998;2022-08-01T04:54:27;18.00;99.90
16635;DHT22;8431;52.458;9.998;2022-08-01T04:56:56;18.10;99.90
16635;DHT22;8431;52.458;9.998;2022-08-01T04:59:25;18.00;99.90
16635;DHT22;8431;52.458;9.998;2022-08-01T05:02:08;18.00;99.90
16635;DHT22;8431;52.458;9.998;2022-08-01T05:04:36;18.00;99.90
16635;DHT22;8431;52.458;9.998;2022-08-01T05:07:04;18.00;99.90
16635;DHT22;8431;52.458;9.998;2022-08-01T05:09:32;18.10;99.90
16635;DHT22;8431;52.458;9.998;2022-08-01T05:12:00;18.20;99.90
16635;DHT22;8431;52.458;9.998;2022-08-01T05:14:28;18.20;99.90
16635;DHT22;8431;52.458;9.998;2022-08-01T05:16:57;18.30;99.90
16635;DHT22;8431;52.458;9.998;2022-08-01T05:19:25;18.30;99.90
16635;DHT22;8431;52.458;9.998;2022-08-01T05:21:52;18.30;99.90
16635;DHT22;8431;52.458;9.998;2022-08-01T05:24:21;18.20;99.90
16635;DHT22;8431;52.458;9.998;2022-08-01T05:26:48;18.20;99.90
16635;DHT22;8431;52.458;9.998;2022-08-01T05:29:15;18.20;99.90
16635;DHT22;8431;52.458;9.998;2022-08-01T05:31:42;18.10;99.90
16635;DHT22;8431;52.458;9.998;2022-08-01T05:34:09;18.10;99.90
16635;DHT22;8431;52.458;9.998;2022-08-01T05:36:36;18.10;99.90
16635;DHT22;8431;52.458;9.998;2022-08-01T05:39:03;18.10;99.90
16635;DHT22;8431;52.458;9.998;2022-08-01T05:41:32;18.10;99.90
16635;DHT22;8431;52.458;9.998;2022-08-01T05:44:03;18.00;99.90
16635;DHT22;8431;52.458;9.998;2022-08-01T05:46:30;18.00;99.90
16635;DHT22;8431;52.458;9.998;2022-08-01T05:48:57;17.90;99.90
16635;DHT22;8431;52.458;9.998;2022-08-01T05:51:25;17.90;99.90
16635;DHT22;8431;52.458;9.998;2022-08-01T05:53:53;17.90;99.90
16635;DHT22;8431;52.458;9.998;2022-08-01T05:56:20;17.90;99.90
16635;DHT22;8431;52.458;9.998;2022-08-01T05:58:50;17.90;99.90
16635;DHT22;8431;52.458;9.998;2022-08-01T06:01:17;17.90;99.90
16635;DHT22;8431;52.458;9.998;2022-08-01T06:03:45;17.90;99.90
16635;DHT22;8431;52.458;9.998;2022-08-01T06:06:12;17.90;99.90
16635;DHT22;8431;52.458;9.998;2022-08-01T06:08:40;17.90;99.90
16635;DHT22;8431;52.458;9.998;2022-08-01T06:11:07;18.00;99.90
16635;DHT22;8431;52.458;9.998;2022-08-01T06:13:35;18.10;99.90
16635;DHT22;8431;52.458;9.998;2022-08-01T06:16:03;18.10;99.90
16635;DHT22;8431;52.458;9.998;2022-08-01T06:18:31;18.20;99.90
16635;DHT22;8431;52.458;9.998;2022-08-01T06:21:00;18.00;99.90
16635;DHT22;8431;52.458;9.998;2022-08-01T06:23:27;18.10;99.90
16635;DHT22;8431;52.458;9.998;2022-08-01T06:25:54;18.10;99.90
16635;DHT22;8431;52.458;9.998;2022-08-01T06:28:22;18.10;99.90
16635;DHT22;8431;52.458;9.998;2022-08-01T06:30:49;18.20;99.90
16635;DHT22;8431;52.458;9.998;2022-08-01T06:33:17;18.30;99.90
16635;DHT22;8431;52.458;9.998;2022-08-01T06:35:44;18.60;99.90
16635;DHT22;8431;52.458;9.998;2022-08-01T06:38:11;18.60;99.90
16635;DHT22;8431;52.458;9.998;2022-08-01T06:40:38;18.60;99.90
16635;DHT22;8431;52.458;9.998;2022-08-01T06:43:05;18.60;99.90
16635;DHT22;8431;52.458;9.998;2022-08-01T06:45:32;18.50;99.90
16635;DHT22;8431;52.458;9.998;2022-08-01T06:47:59;18.50;99.90
16635;DHT22;8431;52.458;9.998;2022-08-01T06:50:28;18.50;99.90
16635;DHT22;8431;52.458;9.998;2022-08-01T06:52:55;18.50;99.90
16635;DHT22;8431;52.458;9.998;2022-08-01T06:55:22;18.60;99.90
16635;DHT22;8431;52.458;9.998;2022-08-01T06:57:50;18.70;99.90
16635;DHT22;8431;52.458;9.998;2022-08-01T07:00:18;18.70;99.90
16635;DHT22;8431;52.458;9.998;2022-08-01T07:02:48;18.70;99.90
16635;DHT22;8431;52.458;9.998;2022-08-01T07:05:15;18.90;99.90
16635;DHT22;8431;52.458;9.998;2022-08-01T07:07:43;19.00;99.90
16635;DHT22;8431;52.458;9.998;2022-08-01T07:10:11;19.00;99.90
16635;DHT22;8431;52.458;9.998;2022-08-01T07:12:38;19.00;99.90
16635;DHT22;8431;52.458;9.998;2022-08-01T07:15:08;19.00;99.90
16635;DHT22;8431;52.458;9.998;2022-08-01T07:17:37;19.00;99.90
16635;DHT22;8431;52.458;9.998;2022-08-01T07:20:06;19.20;99.90
16635;DHT22;8431;52.458;9.998;2022-08-01T07:22:33;19.30;99.90
16635;DHT22;8431;52.458;9.998;2022-08-01T07:25:02;19.40;99.90
16635;DHT22;8431;52.458;9.998;2022-08-01T07:27:30;19.50;99.90
16635;DHT22;8431;52.458;9.998;2022-08-01T07:29:57;19.50;99.90
16635;DHT22;8431;52.458;9.998;2022-08-01T07:32:24;19.50;99.90
16635;DHT22;8431;52.458;9.998;2022-08-01T07:34:51;19.60;99.90
16635;DHT22;8431;52.458;9.998;2022-08-01T07:37:18;19.80;99.90
16635;DHT22;8431;52.458;9.998;2022-08-01T07:39:45;19.80;99.90
16635;DHT22;8431;52.458;9.998;2022-08-01T07:42:14;19.80;99.90
16635;DHT22;8431;52.458;9.998;2022-08-01T07:44:42;19.90;99.90
16635;DHT22;8431;52.458;9.998;2022-08-01T07:47:09;20.00;99.90
16635;DHT22;8431;52.458;9.998;2022-08-01T07:49:36;20.00;99.90
16635;DHT22;8431;52.458;9.998;2022-08-01T07:52:03;19.90;99.90
16635;DHT22;8431;52.458;9.998;2022-08-01T07:54:30;20.00;99.90
16635;DHT22;8431;52.458;9.998;2022-08-01T07:56:57;19.80;99.90
16635;DHT22;8431;52.458;9.998;2022-08-01T07:59:26;19.50;99.90
16635;DHT22;8431;52.458;9.998;2022-08-01T08:01:53;19.40;99.90
16635;DHT22;8431;52.458;9.998;2022-08-01T08:04:20;19.20;99.90
16635;DHT22;8431;52.458;9.998;2022-08-01T08:06:47;18.90;99.90
16635;DHT22;8431;52.458;9.998;2022-08-01T08:09:14;18.70;99.90
16635;DHT22;8431;52.458;9.998;2022-08-01T08:11:42;18.50;99.90
16635;DHT22;8431;52.458;9.998;2022-08-01T08:14:10;18.30;99.90
16635;DHT22;8431;52.458;9.998;2022-08-01T08:16:38;18.30;99.90
16635;DHT22;8431;52.458;9.998;2022-08-01T08:19:05;18.50;99.90
16635;DHT22;8431;52.458;9.998;2022-08-01T08:21:32;18.70;99.90
16635;DHT22;8431;52.458;9.998;2022-08-01T08:23:59;19.00;99.90
16635;DHT22;8431;52.458;9.998;2022-08-01T08:26:43;19.30;99.90
16635;DHT22;8431;52.458;9.998;2022-08-01T08:29:10;19.60;99.90
16635;DHT22;8431;52.458;9.998;2022-08-01T08:31:39;19.80;99.90
16635;DHT22;8431;52.458;9.998;2022-08-01T08:34:06;20.20;99.90
16635;DHT22;8431;52.458;9.998;2022-08-01T08:36:33;20.50;99.90
16635;DHT22;8431;52.458;9.998;2022-08-01T08:39:00;20.40;99.90
16635;DHT22;8431;52.458;9.998;2022-08-01T08:41:29;20.70;99.90
16635;DHT22;8431;52.458;9.998;2022-08-01T08:43:56;20.60;99.90
16635;DHT22;8431;52.458;9.998;2022-08-01T08:46:25;20.70;99.90
16635;DHT22;8431;52.458;9.998;2022-08-01T08:48:55;20.70;99.90
16635;DHT22;8431;52.458;9.998;2022-08-01T08:51:24;20.50;99.90
16635;DHT22;8431;52.458;9.998;2022-08-01T08:53:55;20.30;99.90
16635;DHT22;8431;52.458;9.998;2022-08-01T08:56:23;20.30;99.90
16635;DHT22;8431;52.458;9.998;2022-08-01T08:58:51;20.10;99.90
16635;DHT22;8431;52.458;9.998;2022-08-01T09:01:18;20.10;99.90
16635;DHT22;8431;52.458;9.998;2022-08-01T09:03:46;20.10;99.90
16635;DHT22;8431;52.458;9.998;2022-08-01T09:06:15;19.90;99.90
16635;DHT22;8431;52.458;9.998;2022-08-01T09:08:42;19.80;99.90
16635;DHT22;8431;52.458;9.998;2022-08-01T09:11:09;19.50;99.90
16635;DHT22;8431;52.458;9.998;2022-08-01T09:13:36;19.10;99.90
16635;DHT22;8431;52.458;9.998;2022-08-01T09:16:05;18.90;99.90
16635;DHT22;8431;52.458;9.998;2022-08-01T09:18:33;18.80;99.90
16635;DHT22;8431;52.458;9.998;2022-08-01T09:21:16;19.00;99.90
16635;DHT22;8431;52.458;9.998;2022-08-01T09:23:45;19.20;99.90
16635;DHT22;8431;52.458;9.998;2022-08-01T09:26:14;19.60;99.90
16635;DHT22;8431;52.458;9.998;2022-08-01T09:28:42;19.80;99.90
16635;DHT22;8431;52.458;9.998;2022-08-01T09:31:12;19.90;99.90
16635;DHT22;8431;52.458;9.998;2022-08-01T09:33:51;20.00;99.90
16635;DHT22;8431;52.458;9.998;2022-08-01T09:36:22;20.10;99.90
16635;DHT22;8431;52.458;9.998;2022-08-01T09:38:50;20.50;99.90
16635;DHT22;8431;52.458;9.998;2022-08-01T09:41:17;20.80;99.90
16635;DHT22;8431;52.458;9.998;2022-08-01T09:43:54;20.80;99.90
16635;DHT22;8431;52.458;9.998;2022-08-01T09:46:21;20.60;99.90
16635;DHT22;8431;52.458;9.998;2022-08-01T09:48:56;20.30;99.90
16635;DHT22;8431;52.458;9.998;2022-08-01T09:51:36;20.40;99.90
16635;DHT22;8431;52.458;9.998;2022-08-01T09:54:05;20.50;99.90
16635;DHT22;8431;52.458;9.998;2022-08-01T09:56:37;20.80;99.90
16635;DHT22;8431;52.458;9.998;2022-08-01T09:59:04;21.20;99.90
16635;DHT22;8431;52.458;9.998;2022-08-01T10:01:47;21.40;99.90
16635;DHT22;8431;52.458;9.998;2022-08-01T10:04:16;21.40;99.90
16635;DHT22;8431;52.458;9.998;2022-08-01T10:06:46;21.40;99.90
16635;DHT22;8431;52.458;9.998;2022-08-01T10:09:28;21.20;99.90
16635;DHT22;8431;52.458;9.998;2022-08-01T10:11:55;20.80;99.90
16635;DHT22;8431;52.458;9.998;2022-08-01T10:14:25;20.80;99.90
16635;DHT22;8431;52.458;9.998;2022-08-01T10:16:53;20.40;99.90
16635;DHT22;8431;52.458;9.998;2022-08-01T10:19:22;20.40;99.90
16635;DHT22;8431;52.458;9.998;2022-08-01T10:21:53;20.30;99.90
16635;DHT22;8431;52.458;9.998;2022-08-01T10:24:21;20.20;99.90
16635;DHT22;8431;52.458;9.998;2022-08-01T10:26:56;20.20;99.90
16635;DHT22;8431;52.458;9.998;2022-08-01T10:29:26;20.20;99.90
16635;DHT22;8431;52.458;9.998;2022-08-01T10:31:54;20.30;99.90
16635;DHT22;8431;52.458;9.998;2022-08-01T10:34:21;20.60;99.90
16635;DHT22;8431;52.458;9.998;2022-08-01T10:36:50;20.80;99.90
16635;DHT22;8431;52.458;9.998;2022-08-01T10:39:18;21.40;99.90
16635;DHT22;8431;52.458;9.998;2022-08-01T10:41:45;21.80;99.90
16635;DHT22;8431;52.458;9.998;2022-08-01T10:44:13;22.00;99.90
16635;DHT22;8431;52.458;9.998;2022-08-01T10:46:44;21.70;99.90
16635;DHT22;8431;52.458;9.998;2022-08-01T10:49:16;21.00;99.90
16635;DHT22;8431;52.458;9.998;2022-08-01T10:51:44;20.80;99.90
16635;DHT22;8431;52.458;9.998;2022-08-01T10:54:13;20.50;99.90
16635;DHT22;8431;52.458;9.998;2022-08-01T10:56:43;20.70;99.90
16635;DHT22;8431;52.458;9.998;2022-08-01T10:59:15;20.60;99.90
16635;DHT22;8431;52.458;9.998;2022-08-01T11:01:55;20.80;99.90
16635;DHT22;8431;52.458;9.998;2022-08-01T11:04:33;21.00;99.90
16635;DHT22;8431;52.458;9.998;2022-08-01T11:07:06;21.00;99.90
16635;DHT22;8431;52.458;9.998;2022-08-01T11:09:45;21.00;99.90
16635;DHT22;8431;52.458;9.998;2022-08-01T11:12:15;20.90;99.90
16635;DHT22;8431;52.458;9.998;2022-08-01T11:15:20;21.20;99.90
16635;DHT22;8431;52.458;9.998;2022-08-01T11:17:54;21.80;99.90
16635;DHT22;8431;52.458;9.998;2022-08-01T11:20:23;21.40;99.90
16635;DHT22;8431;52.458;9.998;2022-08-01T11:23:24;21.00;99.90
16635;DHT22;8431;52.458;9.998;2022-08-01T11:26:11;21.70;99.90
16635;DHT22;8431;52.458;9.998;2022-08-01T11:28:39;21.70;99.90
16635;DHT22;8431;52.458;9.998;2022-08-01T11:31:29;21.60;99.90
16635;DHT22;8431;52.458;9.998;2022-08-01T11:33:57;21.50;99.90
16635;DHT22;8431;52.458;9.998;2022-08-01T11:36:24;21.90;99.90
16635;DHT22;8431;52.458;9.998;2022-08-01T11:39:15;22.10;99.90
16635;DHT22;8431;52.458;9.998;2022-08-01T11:41:45;22.00;99.90
16635;DHT22;8431;52.458;9.998;2022-08-01T11:44:16;22.50;99.90
16635;DHT22;8431;52.458;9.998;2022-08-01T11:46:52;22.40;99.90
16635;DHT22;8431;52.458;9.998;2022-08-01T11:49:28;22.40;99.90
16635;DHT22;8431;52.458;9.998;2022-08-01T11:52:04;22.50;99.90
16635;DHT22;8431;52.458;9.998;2022-08-01T11:54:33;22.30;99.90
16635;DHT22;8431;52.458;9.998;2022-08-01T11:57:06;22.20;99.90
16635;DHT22;8431;52.458;9.998;2022-08-01T11:59:38;22.00;99.90
16635;DHT22;8431;52.458;9.998;2022-08-01T12:02:16;21.80;99.90
16635;DHT22;8431;52.458;9.998;2022-08-01T12:04:52;22.20;99.90
16635;DHT22;8431;52.458;9.998;2022-08-01T12:07:20;22.30;99.90
16635;DHT22;8431;52.458;9.998;2022-08-01T12:09:48;22.20;99.90
16635;DHT22;8431;52.458;9.998;2022-08-01T12:12:18;21.60;99.90
16635;DHT22;8431;52.458;9.998;2022-08-01T12:14:53;21.60;99.90
16635;DHT22;8431;52.458;9.998;2022-08-01T12:17:31;21.90;99.90
16635;DHT22;8431;52.458;9.998;2022-08-01T12:19:58;22.40;99.90
16635;DHT22;8431;52.458;9.998;2022-08-01T12:22:25;22.70;99.90
16635;DHT22;8431;52.458;9.998;2022-08-01T12:24:53;22.90;99.90
16635;DHT22;8431;52.458;9.998;2022-08-01T12:27:29;22.60;99.90
16635;DHT22;8431;52.458;9.998;2022-08-01T12:29:57;22.50;99.90
16635;DHT22;8431;52.458;9.998;2022-08-01T12:32:27;22.60;99.90
16635;DHT22;8431;52.458;9.998;2022-08-01T12:34:57;22.40;99.90
16635;DHT22;8431;52.458;9.998;2022-08-01T12:37:27;22.30;99.90
16635;DHT22;8431;52.458;9.998;2022-08-01T12:39:54;22.30;99.90
16635;DHT22;8431;52.458;9.998;2022-08-01T12:42:22;22.00;99.90
16635;DHT22;8431;52.458;9.998;2022-08-01T12:44:51;21.90;99.90
16635;DHT22;8431;52.458;9.998;2022-08-01T12:47:20;22.00;99.90
16635;DHT22;8431;52.458;9.998;2022-08-01T12:49:49;22.40;99.90
16635;DHT22;8431;52.458;9.998;2022-08-01T12:52:16;22.60;99.90
16635;DHT22;8431;52.458;9.998;2022-08-01T12:55:11;22.70;99.90
16635;DHT22;8431;52.458;9.998;2022-08-01T12:57:41;23.10;99.90
16635;DHT22;8431;52.458;9.998;2022-08-01T13:00:17;23.00;99.90
16635;DHT22;8431;52.458;9.998;2022-08-01T13:02:45;23.30;99.90
16635;DHT22;8431;52.458;9.998;2022-08-01T13:05:13;23.10;99.90
16635;DHT22;8431;52.458;9.998;2022-08-01T13:07:44;23.10;99.90
16635;DHT22;8431;52.458;9.998;2022-08-01T13:10:13;23.20;99.90
16635;DHT22;8431;52.458;9.998;2022-08-01T13:12:50;23.00;99.90
16635;DHT22;8431;52.458;9.998;2022-08-01T13:15:24;23.00;99.90
16635;DHT22;8431;52.458;9.998;2022-08-01T13:17:53;22.90;99.90
16635;DHT22;8431;52.458;9.998;2022-08-01T13:20:25;23.00;99.90
16635;DHT22;8431;52.458;9.998;2022-08-01T13:22:53;23.10;99.90
16635;DHT22;8431;52.458;9.998;2022-08-01T13:25:20;23.00;99.90
16635;DHT22;8431;52.458;9.998;2022-08-01T13:27:47;23.00;99.90
16635;DHT22;8431;52.458;9.998;2022-08-01T13:30:16;22.90;99.90
16635;DHT22;8431;52.458;9.998;2022-08-01T13:32:57;22.90;99.90
16635;DHT22;8431;52.458;9.998;2022-08-01T13:35:25;22.90;99.90
16635;DHT22;8431;52.458;9.998;2022-08-01T13:37:52;23.10;99.90
16635;DHT22;8431;52.458;9.998;2022-08-01T13:40:24;23.20;99.90
16635;DHT22;8431;52.458;9.998;2022-08-01T13:42:52;23.40;99.90
16635;DHT22;8431;52.458;9.998;2022-08-01T13:45:20;23.20;99.90
16635;DHT22;8431;52.458;9.998;2022-08-01T13:47:48;23.40;99.90
16635;DHT22;8431;52.458;9.998;2022-08-01T13:50:15;23.60;99.90
16635;DHT22;8431;52.458;9.998;2022-08-01T13:52:42;23.60;99.90
16635;DHT22;8431;52.458;9.998;2022-08-01T13:55:09;23.50;99.90
16635;DHT22;8431;52.458;9.998;2022-08-01T13:57:36;23.40;99.90
16635;DHT22;8431;52.458;9.998;2022-08-01T14:00:04;23.10;99.90
16635;DHT22;8431;52.458;9.998;2022-08-01T14:02:32;23.20;99.90
16635;DHT22;8431;52.458;9.998;2022-08-01T14:05:00;23.40;99.90
16635;DHT22;8431;52.458;9.998;2022-08-01T14:07:28;23.50;99.90
16635;DHT22;8431;52.458;9.998;2022-08-01T14:09:55;23.50;99.90
16635;DHT22;8431;52.458;9.998;2022-08-01T14:12:22;23.20;99.90
16635;DHT22;8431;52.458;9.998;2022-08-01T14:14:49;23.10;99.90
16635;DHT22;8431;52.458;9.998;2022-08-01T14:17:16;22.90;99.90
16635;DHT22;8431;52.458;9.998;2022-08-01T14:19:43;23.10;99.90
16635;DHT22;8431;52.458;9.998;2022-08-01T14:22:11;23.10;99.90
16635;DHT22;8431;52.458;9.998;2022-08-01T14:24:38;23.10;99.90
16635;DHT22;8431;52.458;9.998;2022-08-01T14:27:05;23.00;99.90
16635;DHT22;8431;52.458;9.998;2022-08-01T14:29:32;23.00;99.90
16635;DHT22;8431;52.458;9.998;2022-08-01T14:31:59;23.30;99.90
16635;DHT22;8431;52.458;9.998;2022-08-01T14:34:26;23.20;99.90
16635;DHT22;8431;52.458;9.998;2022-08-01T14:36:53;23.10;99.90
16635;DHT22;8431;52.458;9.998;2022-08-01T14:39:21;23.00;99.90
16635;DHT22;8431;52.458;9.998;2022-08-01T14:41:48;22.80;99.90
16635;DHT22;8431;52.458;9.998;2022-08-01T14:44:15;22.70;99.90
16635;DHT22;8431;52.458;9.998;2022-08-01T14:46:42;22.50;99.90
16635;DHT22;8431;52.458;9.998;2022-08-01T14:49:09;22.50;99.90
16635;DHT22;8431;52.458;9.998;2022-08-01T14:51:37;22.60;99.90
16635;DHT22;8431;52.458;9.998;2022-08-01T14:54:04;22.90;99.90
16635;DHT22;8431;52.458;9.998;2022-08-01T14:56:33;23.20;99.90
16635;DHT22;8431;52.458;9.998;2022-08-01T14:59:00;23.50;99.90
16635;DHT22;8431;52.458;9.998;2022-08-01T15:01:27;23.80;99.90
16635;DHT22;8431;52.458;9.998;2022-08-01T15:03:54;23.80;99.90
16635;DHT22;8431;52.458;9.998;2022-08-01T15:06:21;24.00;99.90
16635;DHT22;8431;52.458;9.998;2022-08-01T15:08:49;23.90;99.90
16635;DHT22;8431;52.458;9.998;2022-08-01T15:11:15;23.70;99.90
16635;DHT22;8431;52.458;9.998;2022-08-01T15:13:44;23.80;99.90
16635;DHT22;8431;52.458;9.998;2022-08-01T15:16:31;23.80;99.90
16635;DHT22;8431;52.458;9.998;2022-08-01T15:18:58;23.90;99.90
16635;DHT22;8431;52.458;9.998;2022-08-01T15:21:25;23.80;99.90
16635;DHT22;8431;52.458;9.998;2022-08-01T15:23:52;23.50;99.90
16635;DHT22;8431;52.458;9.998;2022-08-01T15:26:19;23.40;99.90
16635;DHT22;8431;52.458;9.998;2022-08-01T15:28:48;23.30;99.90
16635;DHT22;8431;52.458;9.998;2022-08-01T15:31:15;23.20;99.90
16635;DHT22;8431;52.458;9.998;2022-08-01T15:33:42;23.20;99.90
16635;DHT22;8431;52.458;9.998;2022-08-01T15:36:10;23.30;99.90
16635;DHT22;8431;52.458;9.998;2022-08-01T15:38:37;23.20;99.90
16635;DHT22;8431;52.458;9.998;2022-08-01T15:41:04;23.00;99.90
16635;DHT22;8431;52.458;9.998;2022-08-01T15:43:31;23.00;99.90
16635;DHT22;8431;52.458;9.998;2022-08-01T15:45:59;23.00;99.90
16635;DHT22;8431;52.458;9.998;2022-08-01T15:48:27;23.10;99.90
16635;DHT22;8431;52.458;9.998;2022-08-01T15:50:55;23.20;99.90
16635;DHT22;8431;52.458;9.998;2022-08-01T15:53:22;23.30;99.90
16635;DHT22;8431;52.458;9.998;2022-08-01T15:55:49;23.40;99.90
16635;DHT22;8431;52.458;9.998;2022-08-01T15:58:16;23.50;99.90
16635;DHT22;8431;52.458;9.998;2022-08-01T16:00:43;23.50;99.90
16635;DHT22;8431;52.458;9.998;2022-08-01T16:03:12;23.50;99.90
16635;DHT22;8431;52.458;9.998;2022-08-01T16:05:39;23.30;99.90
16635;DHT22;8431;52.458;9.998;2022-08-01T16:08:08;23.20;99.90